createdAt,value
2018-06-02T00:00:09.003Z,14.90
2018-06-02T00:02:39.362Z,14.80
2018-06-02T00:05:15.247Z,14.80
2018-06-02T00:07:44.288Z,14.70
2018-06-02T00:10:17.030Z,14.70
2018-06-02T00:12:46.484Z,14.70
2018-06-02T00:15:19.439Z,14.60
2018-06-02T00:17:47.459Z,14.60
2018-06-02T00:20:15.470Z,14.60
2018-06-02T00:22:45.407Z,14.50
2018-06-02T00:25:13.419Z,14.60
2018-06-02T00:27:45.423Z,14.60
2018-06-02T00:30:13.435Z,14.50
2018-06-02T00:32:41.506Z,14.50
2018-06-02T00:35:10.299Z,14.40
2018-06-02T00:37:38.327Z,14.40
2018-06-02T00:40:06.367Z,14.40
2018-06-02T00:42:41.827Z,14.40
2018-06-02T00:45:10.735Z,14.40
2018-06-02T00:47:45.435Z,14.40
2018-06-02T00:50:13.459Z,14.30
2018-06-02T00:52:45.196Z,14.20
2018-06-02T00:55:18.947Z,14.20
2018-06-02T00:57:47.895Z,14.10
2018-06-02T01:00:19.527Z,14.10
2018-06-02T01:02:48.211Z,14.00
2018-06-02T01:05:17.923Z,13.90
2018-06-02T01:07:46.828Z,13.80
2018-06-02T01:10:19.495Z,13.80
2018-06-02T01:12:54.714Z,13.80
2018-06-02T01:15:23.636Z,13.80
2018-06-02T01:17:52.611Z,13.80
2018-06-02T01:20:22.639Z,13.80
2018-06-02T01:22:50.651Z,13.80
2018-06-02T01:25:21.753Z,13.80
2018-06-02T01:27:49.791Z,13.70
2018-06-02T01:30:18.706Z,13.70
2018-06-02T01:32:51.815Z,13.70
2018-06-02T01:35:20.778Z,13.60
2018-06-02T01:37:55.815Z,13.60
2018-06-02T01:40:26.866Z,13.60
2018-06-02T01:42:58.730Z,13.60
2018-06-02T01:45:34.080Z,13.60
2018-06-02T01:48:02.148Z,13.70
2018-06-02T01:50:33.827Z,13.70
2018-06-02T01:53:04.550Z,13.70
2018-06-02T01:55:34.246Z,13.70
2018-06-02T01:58:02.275Z,13.60
2018-06-02T02:00:38.339Z,13.60
2018-06-02T02:03:09.622Z,13.60
2018-06-02T02:05:38.615Z,13.70
2018-06-02T02:08:10.063Z,13.70
2018-06-02T02:10:39.063Z,13.60
2018-06-02T02:13:07.087Z,13.60
2018-06-02T02:15:45.186Z,13.60
2018-06-02T02:18:14.226Z,13.60
2018-06-02T02:20:46.002Z,13.50
2018-06-02T02:23:15.830Z,13.50
2018-06-02T02:25:56.246Z,13.50
2018-06-02T02:28:24.274Z,13.50
2018-06-02T02:30:53.311Z,13.50
2018-06-02T02:33:22.339Z,13.40
2018-06-02T02:35:51.126Z,13.30
2018-06-02T02:38:19.946Z,13.30
2018-06-02T02:40:49.693Z,13.30
2018-06-02T02:43:21.363Z,13.20
2018-06-02T02:45:50.322Z,13.20
2018-06-02T02:48:20.350Z,13.20
2018-06-02T02:50:50.410Z,13.20
2018-06-02T02:53:19.350Z,13.20
2018-06-02T02:55:53.086Z,13.20
2018-06-02T02:58:26.776Z,13.20
2018-06-02T03:00:59.570Z,13.10
2018-06-02T03:03:34.046Z,13.00
2018-06-02T03:06:04.002Z,13.10
2018-06-02T03:08:34.009Z,13.10
2018-06-02T03:11:02.030Z,13.00
2018-06-02T03:13:33.918Z,13.00
2018-06-02T03:16:13.137Z,13.10
2018-06-02T03:18:41.163Z,13.10
2018-06-02T03:21:09.965Z,13.20
2018-06-02T03:23:38.757Z,13.20
2018-06-02T03:26:07.709Z,13.20
2018-06-02T03:28:36.716Z,13.30
2018-06-02T03:31:12.201Z,13.30
2018-06-02T03:33:42.182Z,13.30
2018-06-02T03:36:10.186Z,13.30
2018-06-02T03:38:42.493Z,13.20
2018-06-02T03:41:10.529Z,13.20
2018-06-02T03:43:45.489Z,13.20
2018-06-02T03:46:31.925Z,13.20
2018-06-02T03:49:01.742Z,13.20
2018-06-02T03:51:30.529Z,13.20
2018-06-02T03:54:02.990Z,13.20
2018-06-02T03:56:33.689Z,13.20
2018-06-02T03:59:12.104Z,13.10
2018-06-02T04:01:44.169Z,13.20
2018-06-02T04:04:36.881Z,13.10
2018-06-02T04:07:05.809Z,13.00
2018-06-02T04:09:35.982Z,13.10
2018-06-02T04:12:04.926Z,13.10
2018-06-02T04:17:33.301Z,13.20
2018-06-02T04:20:15.101Z,13.20
2018-06-02T04:22:48.670Z,13.20
2018-06-02T04:25:21.090Z,13.20
2018-06-02T04:27:53.045Z,13.40
2018-06-02T04:30:27.821Z,13.50
2018-06-02T04:33:03.499Z,13.60
2018-06-02T04:35:34.793Z,13.60
2018-06-02T04:38:18.854Z,13.80
2018-06-02T04:40:47.653Z,13.80
2018-06-02T04:43:15.673Z,13.80
2018-06-02T04:45:47.633Z,13.90
2018-06-02T04:48:19.277Z,14.00
2018-06-02T04:50:48.312Z,14.20
2018-06-02T04:53:17.089Z,14.40
2018-06-02T04:55:46.053Z,14.40
2018-06-02T04:58:15.058Z,14.60
2018-06-02T05:00:46.917Z,14.70
2018-06-02T05:03:20.517Z,14.80
2018-06-02T05:05:48.549Z,15.00
2018-06-02T05:08:29.941Z,15.20
2018-06-02T05:10:57.969Z,15.40
2018-06-02T05:13:27.981Z,15.80
2018-06-02T05:15:57.974Z,16.20
2018-06-02T05:18:27.997Z,16.30
2018-06-02T05:20:56.021Z,16.60
2018-06-02T05:23:25.973Z,16.80
2018-06-02T05:25:57.961Z,17.00
2018-06-02T05:28:26.933Z,17.10
2018-06-02T05:30:54.945Z,17.10
2018-06-02T05:33:42.994Z,17.20
2018-06-02T05:36:14.693Z,17.20
2018-06-02T05:38:49.949Z,17.50
2018-06-02T05:41:17.957Z,17.40
2018-06-02T05:43:47.917Z,17.50
2018-06-02T05:46:15.933Z,17.70
2018-06-02T05:48:49.337Z,18.10
2018-06-02T05:51:18.277Z,18.10
2018-06-02T05:53:51.366Z,18.20
2018-06-02T05:56:24.878Z,18.40
2018-06-02T05:58:53.857Z,18.40
2018-06-02T06:01:25.511Z,18.40
2018-06-02T06:03:54.918Z,18.40
2018-06-02T06:06:22.941Z,18.50
2018-06-02T06:08:53.609Z,18.70
2018-06-02T06:11:35.340Z,18.60
2018-06-02T06:14:07.660Z,19.10
2018-06-02T06:16:48.104Z,19.10
2018-06-02T06:19:17.125Z,19.30
2018-06-02T06:21:47.137Z,19.50
2018-06-02T06:24:17.194Z,19.80
2018-06-02T06:26:47.910Z,20.70
2018-06-02T06:29:20.581Z,20.60
2018-06-02T06:31:49.561Z,21.30
2018-06-02T06:34:21.841Z,21.50
2018-06-02T06:36:53.493Z,22.00
2018-06-02T06:39:21.493Z,22.00
2018-06-02T06:41:51.253Z,22.50
2018-06-02T06:44:19.297Z,22.40
2018-06-02T06:46:47.321Z,22.70
2018-06-02T06:49:15.321Z,22.80
2018-06-02T06:51:46.001Z,22.90
2018-06-02T06:54:14.996Z,22.90
2018-06-02T06:56:44.341Z,22.90
2018-06-02T06:59:15.465Z,22.80
2018-06-02T07:01:43.466Z,22.80
2018-06-02T07:04:13.209Z,21.40
2018-06-02T07:06:44.357Z,21.40
2018-06-02T07:09:18.745Z,21.50
2018-06-02T07:11:47.705Z,21.70
2018-06-02T07:14:15.684Z,21.80
2018-06-02T07:16:44.461Z,22.70
2018-06-02T07:19:14.181Z,22.90
2018-06-02T07:21:42.230Z,22.90
2018-06-02T07:24:10.197Z,23.20
2018-06-02T07:26:38.209Z,22.80
2018-06-02T07:29:07.129Z,22.40
2018-06-02T07:31:36.049Z,22.00
2018-06-02T07:34:04.061Z,22.10
2018-06-02T07:36:36.233Z,22.50
2018-06-02T07:39:13.513Z,23.70
2018-06-02T07:41:41.529Z,23.70
2018-06-02T07:44:13.400Z,23.90
2018-06-02T07:46:43.099Z,23.20
2018-06-02T07:49:12.153Z,23.20
2018-06-02T07:51:42.085Z,22.90
2018-06-02T07:54:11.288Z,22.50
2018-06-02T07:56:40.017Z,22.00
2018-06-02T07:59:09.729Z,22.10
2018-06-02T08:01:37.725Z,22.10
2018-06-02T08:04:06.649Z,22.80
2018-06-02T08:06:34.653Z,23.60
2018-06-02T08:09:02.653Z,24.20
2018-06-02T08:11:31.601Z,24.40
2018-06-02T08:13:59.593Z,24.30
2018-06-02T08:16:29.257Z,24.50
2018-06-02T08:18:58.156Z,24.50
2018-06-02T08:21:31.736Z,25.10
2018-06-02T08:24:02.013Z,25.40
2018-06-02T08:26:31.784Z,25.20
2018-06-02T08:29:00.777Z,25.10
2018-06-02T08:31:28.781Z,24.90
2018-06-02T08:33:57.553Z,24.50
2018-06-02T08:36:25.565Z,24.50
2018-06-02T08:38:54.495Z,24.00
2018-06-02T08:41:29.509Z,23.50
2018-06-02T08:43:59.416Z,24.10
2018-06-02T08:46:34.041Z,24.20
2018-06-02T08:49:02.037Z,24.70
2018-06-02T08:51:36.429Z,26.10
2018-06-02T08:54:20.851Z,27.30
2018-06-02T08:56:50.617Z,29.50
2018-06-02T08:59:28.799Z,29.40
2018-06-02T09:02:19.813Z,30.50
2018-06-02T09:04:48.724Z,31.20
2018-06-02T09:07:22.228Z,31.00
2018-06-02T09:09:51.133Z,29.30
2018-06-02T09:12:22.804Z,29.60
2018-06-02T09:15:03.992Z,29.60
2018-06-02T09:17:33.693Z,31.00
2018-06-02T09:20:01.688Z,31.00
2018-06-02T09:22:30.585Z,31.30
2018-06-02T09:24:58.601Z,31.50
2018-06-02T09:27:30.240Z,31.80
2018-06-02T09:30:01.881Z,32.60
2018-06-02T09:32:30.797Z,31.80
2018-06-02T09:35:02.128Z,31.00
2018-06-02T09:37:30.896Z,29.40
2018-06-02T09:40:01.592Z,28.90
2018-06-02T09:42:29.630Z,28.80
2018-06-02T09:44:57.636Z,27.90
2018-06-02T09:47:27.412Z,27.60
2018-06-02T09:49:58.537Z,27.60
2018-06-02T09:52:47.265Z,29.30
2018-06-02T09:55:15.261Z,30.90
2018-06-02T09:57:44.171Z,32.30
2018-06-02T10:00:12.176Z,31.60
2018-06-02T10:02:40.936Z,30.90
2018-06-02T10:05:08.960Z,30.90
2018-06-02T10:07:47.369Z,30.20
2018-06-02T10:10:15.376Z,29.70
2018-06-02T10:12:44.352Z,28.60
2018-06-02T10:15:12.360Z,27.80
2018-06-02T10:17:40.352Z,26.80
2018-06-02T10:20:13.608Z,25.20
2018-06-02T10:22:41.600Z,25.20
2018-06-02T10:25:12.273Z,25.10
2018-06-02T10:27:43.280Z,25.10
2018-06-02T10:30:17.825Z,25.30
2018-06-02T10:32:45.840Z,25.30
2018-06-02T10:35:13.828Z,25.90
2018-06-02T10:37:46.104Z,28.70
2018-06-02T10:40:22.424Z,30.30
2018-06-02T10:42:50.428Z,30.30
2018-06-02T10:45:25.911Z,31.00
2018-06-02T10:47:54.816Z,30.70
2018-06-02T10:50:23.812Z,29.60
2018-06-02T10:55:45.739Z,30.40
2018-06-02T10:58:15.664Z,32.60
2018-06-02T11:00:54.274Z,33.30
2018-06-02T11:03:25.344Z,33.30
2018-06-02T11:05:58.120Z,33.20
2018-06-02T11:08:26.128Z,31.50
2018-06-02T11:11:13.380Z,29.40
2018-06-02T11:13:45.089Z,28.20
2018-06-02T11:16:16.873Z,28.90
2018-06-02T11:18:48.608Z,31.00
2018-06-02T11:21:20.353Z,31.00
2018-06-02T11:23:48.356Z,29.60
2018-06-02T11:26:20.781Z,30.30
2018-06-02T11:28:48.800Z,30.20
2018-06-02T11:31:19.480Z,29.90
2018-06-02T11:33:48.396Z,29.90
2018-06-02T11:36:22.372Z,29.80
2018-06-02T11:39:00.257Z,27.80
2018-06-02T11:41:32.248Z,27.70
2018-06-02T11:44:01.193Z,27.20
2018-06-02T11:46:29.183Z,26.60
2018-06-02T11:48:59.137Z,26.10
2018-06-02T11:51:28.036Z,26.00
2018-06-02T11:53:56.043Z,26.20
2018-06-02T11:56:24.844Z,28.70
2018-06-02T11:58:53.220Z,28.60
2018-06-02T12:01:35.320Z,28.70
2018-06-02T12:04:13.228Z,28.30
2018-06-02T12:06:42.168Z,27.70
2018-06-02T12:09:17.576Z,27.00
2018-06-02T12:11:49.540Z,27.40
2018-06-02T12:14:17.560Z,28.50
2018-06-02T12:16:45.564Z,29.90
2018-06-02T12:19:15.815Z,30.10
2018-06-02T12:21:45.762Z,29.10
2018-06-02T12:24:18.009Z,28.20
2018-06-02T12:26:51.636Z,27.50
2018-06-02T12:29:20.420Z,29.30
2018-06-02T12:31:50.080Z,29.90
2018-06-02T12:34:20.020Z,29.90
2018-06-02T12:36:48.920Z,29.70
2018-06-02T12:39:21.492Z,28.80
2018-06-02T12:41:49.497Z,28.10
2018-06-02T12:44:20.300Z,27.40
2018-06-02T12:46:49.280Z,27.40
2018-06-02T12:49:29.088Z,29.30
2018-06-02T12:51:58.838Z,34.40
2018-06-02T12:54:27.839Z,34.30
2018-06-02T12:56:55.844Z,33.80
2018-06-02T12:59:23.852Z,35.00
2018-06-02T13:01:54.908Z,35.80
2018-06-02T13:04:22.939Z,34.10
2018-06-02T13:07:01.055Z,32.10
2018-06-02T13:09:31.976Z,30.50
2018-06-02T13:12:00.904Z,29.60
2018-06-02T13:14:34.270Z,30.20
2018-06-02T13:17:13.620Z,30.80
2018-06-02T13:19:42.644Z,30.90
2018-06-02T13:22:17.080Z,30.40
2018-06-02T13:24:49.012Z,30.70
2018-06-02T13:27:17.025Z,30.10
2018-06-02T13:29:46.692Z,29.60
2018-06-02T13:32:16.388Z,31.70
2018-06-02T13:34:47.732Z,31.80
2018-06-02T13:37:17.679Z,32.20
2018-06-02T13:39:48.731Z,31.70
2018-06-02T13:42:23.132Z,30.80
2018-06-02T13:44:55.084Z,29.90
2018-06-02T13:47:29.232Z,29.30
2018-06-02T13:50:01.372Z,29.40
2018-06-02T13:52:34.120Z,29.30
2018-06-02T13:55:03.968Z,29.00
2018-06-02T13:57:35.593Z,29.30
2018-06-02T14:00:06.948Z,32.30
2018-06-02T14:02:35.228Z,32.30
2018-06-02T14:05:05.198Z,31.00
2018-06-02T14:07:33.992Z,28.30
2018-06-02T14:10:03.744Z,27.60
2018-06-02T14:12:48.752Z,27.60
2018-06-02T14:15:17.705Z,27.10
2018-06-02T14:17:45.720Z,26.80
2018-06-02T14:20:17.535Z,28.50
2018-06-02T14:22:45.548Z,28.60
2018-06-02T14:25:15.326Z,30.00
2018-06-02T14:27:43.311Z,30.10
2018-06-02T14:30:14.912Z,31.70
2018-06-02T14:32:46.497Z,31.70
2018-06-02T14:35:14.520Z,31.90
2018-06-02T14:37:42.574Z,31.00
2018-06-02T14:40:15.111Z,30.50
2018-06-02T14:42:43.135Z,30.50
2018-06-02T14:45:11.912Z,28.70
2018-06-02T14:47:41.676Z,29.20
2018-06-02T14:50:09.684Z,29.10
2018-06-02T14:52:38.455Z,28.20
2018-06-02T14:55:06.478Z,28.20
2018-06-02T14:57:34.468Z,28.80
2018-06-02T15:00:10.828Z,27.10
2018-06-02T15:02:38.851Z,27.10
2018-06-02T15:05:07.627Z,27.90
2018-06-02T15:07:35.643Z,27.90
2018-06-02T15:10:09.979Z,29.80
2018-06-02T15:12:38.007Z,29.70
2018-06-02T15:15:06.767Z,27.50
2018-06-02T15:17:35.723Z,27.40
2018-06-02T15:20:04.715Z,26.60
2018-06-02T15:22:32.715Z,25.80
2018-06-02T15:25:00.754Z,25.70
2018-06-02T15:27:28.767Z,26.80
2018-06-02T15:29:57.655Z,27.80
2018-06-02T15:32:29.386Z,28.90
2018-06-02T15:35:03.971Z,31.00
2018-06-02T15:37:31.970Z,30.90
2018-06-02T15:40:06.535Z,30.80
2018-06-02T15:42:34.543Z,30.80
2018-06-02T15:45:08.827Z,30.40
2018-06-02T15:47:40.842Z,28.20
2018-06-02T15:50:09.863Z,28.10
2018-06-02T15:52:43.119Z,27.30
2018-06-02T15:55:11.160Z,29.30
2018-06-02T15:57:39.167Z,29.50
2018-06-02T16:00:07.176Z,30.50
2018-06-02T16:02:36.177Z,30.40
2018-06-02T16:05:04.143Z,30.10
2018-06-02T16:07:32.915Z,30.60
2018-06-02T16:10:00.919Z,30.60
2018-06-02T16:12:30.887Z,30.00
2018-06-02T16:14:59.791Z,29.10
2018-06-02T16:17:27.803Z,28.90
2018-06-02T16:19:55.867Z,28.30
2018-06-02T16:22:23.887Z,26.70
2018-06-02T16:24:51.895Z,25.70
2018-06-02T16:27:22.675Z,26.10
2018-06-02T16:29:56.435Z,26.10
2018-06-02T16:32:30.027Z,27.60
2018-06-02T16:34:58.792Z,28.50
2018-06-02T16:37:26.802Z,28.50
2018-06-02T16:39:54.823Z,29.90
2018-06-02T16:42:23.730Z,31.10
2018-06-02T16:44:51.730Z,31.80
2018-06-02T16:47:20.684Z,33.00
2018-06-02T16:49:48.694Z,33.00
2018-06-02T16:52:16.814Z,31.50
2018-06-02T16:54:45.947Z,30.00
2018-06-02T16:57:15.907Z,27.70
2018-06-02T16:59:45.982Z,27.70
2018-06-02T17:02:15.015Z,27.00
2018-06-02T17:05:26.746Z,26.90
2018-06-02T17:07:56.747Z,26.10
2018-06-02T17:10:27.714Z,25.10
2018-06-02T17:12:58.555Z,24.40
2018-06-02T17:15:27.338Z,23.90
2018-06-02T17:17:58.091Z,23.60
2018-06-02T17:20:27.866Z,23.30
2018-06-02T17:23:02.970Z,23.20
2018-06-02T17:25:35.307Z,23.10
2018-06-02T17:28:05.087Z,22.90
2018-06-02T17:30:34.898Z,23.20
2018-06-02T17:33:03.682Z,23.70
2018-06-02T17:35:39.178Z,24.50
2018-06-02T17:38:09.983Z,25.30
2018-06-02T17:40:51.096Z,25.80
2018-06-02T17:43:21.870Z,26.00
2018-06-02T17:45:50.690Z,25.80
2018-06-02T17:50:55.310Z,25.60
2018-06-02T17:53:26.146Z,25.50
2018-06-02T17:56:00.990Z,25.30
2018-06-02T17:58:30.780Z,25.10
2018-06-02T18:01:09.785Z,24.80
2018-06-02T18:03:40.523Z,24.40
2018-06-02T18:06:12.922Z,24.00
2018-06-02T18:08:51.482Z,24.00
2018-06-02T18:11:23.775Z,23.80
2018-06-02T18:13:52.606Z,23.40
2018-06-02T18:16:21.379Z,23.10
2018-06-02T18:18:55.529Z,22.80
2018-06-02T18:21:38.362Z,22.40
2018-06-02T18:24:23.233Z,22.10
2018-06-02T18:26:57.090Z,21.90
2018-06-02T18:29:26.829Z,21.60
2018-06-02T18:31:55.706Z,21.40
2018-06-02T18:34:25.446Z,21.30
2018-06-02T18:36:55.205Z,21.20
2018-06-02T18:39:23.997Z,21.00
2018-06-02T18:41:52.818Z,20.90
2018-06-02T18:44:27.757Z,20.70
2018-06-02T18:46:57.493Z,20.70
2018-06-02T18:49:26.298Z,20.50
2018-06-02T18:51:58.765Z,20.30
2018-06-02T18:54:27.521Z,20.30
2018-06-02T18:56:56.366Z,20.20
2018-06-02T18:59:28.874Z,20.10
2018-06-02T19:01:57.749Z,20.00
2018-06-02T19:04:27.486Z,19.90
2018-06-02T19:06:59.491Z,19.80
2018-06-02T19:09:32.378Z,19.70
2018-06-02T19:12:01.126Z,19.60
2018-06-02T19:14:35.630Z,19.50
2018-06-02T19:17:04.370Z,19.40
2018-06-02T19:19:37.113Z,19.20
2018-06-02T19:22:13.775Z,19.10
2018-06-02T19:24:43.557Z,19.10
2018-06-02T19:27:12.318Z,18.90
2018-06-02T19:29:44.090Z,18.80
2018-06-02T19:32:17.590Z,18.60
2018-06-02T19:34:49.473Z,18.40
2018-06-02T19:39:53.502Z,18.10
2018-06-02T19:42:23.270Z,18.00
2018-06-02T19:44:52.034Z,18.00
2018-06-02T19:47:20.853Z,17.90
2018-06-02T19:49:57.822Z,17.90
2018-06-02T19:52:27.543Z,17.80
2018-06-02T19:54:57.365Z,17.70
2018-06-02T19:57:31.069Z,17.70
2018-06-02T20:00:05.078Z,17.60
2018-06-02T20:02:33.850Z,17.60
2018-06-02T20:05:12.522Z,17.60
2018-06-02T20:07:43.262Z,17.60
2018-06-02T20:10:15.636Z,17.50
2018-06-02T20:12:44.374Z,17.40
2018-06-02T20:15:13.166Z,17.40
2018-06-02T20:17:41.962Z,17.30
2018-06-02T20:20:14.406Z,17.20
2018-06-02T20:22:51.546Z,17.10
2018-06-02T20:25:23.866Z,16.90
2018-06-02T20:27:52.606Z,16.60
2018-06-02T20:30:21.462Z,16.40
2018-06-02T20:32:52.257Z,16.30
2018-06-02T20:35:21.418Z,16.30
2018-06-02T20:37:50.158Z,16.20
2018-06-02T20:40:18.999Z,16.20
2018-06-02T20:45:53.953Z,16.10
2018-06-02T20:48:30.725Z,16.10
2018-06-02T20:51:00.394Z,16.00
2018-06-02T20:53:33.441Z,16.00
2018-06-02T20:56:05.185Z,15.90
2018-06-02T20:58:35.066Z,15.80
2018-06-02T21:01:07.870Z,15.70
2018-06-02T21:03:45.589Z,15.60
2018-06-02T22:12:11.950Z,14.50
2018-06-02T22:14:44.674Z,14.50
2018-06-02T22:17:13.478Z,14.50
2018-06-02T22:19:43.236Z,14.50
2018-06-02T22:22:13.408Z,14.50
2018-06-02T22:24:43.002Z,14.50
2018-06-02T22:27:18.055Z,14.40
2018-06-02T22:29:50.527Z,14.40
2018-06-02T22:32:28.981Z,14.40
2018-06-02T22:34:59.817Z,14.40
2018-06-02T22:37:28.860Z,14.30
2018-06-02T22:40:00.642Z,14.20
2018-06-02T22:42:30.846Z,14.30
2018-06-02T22:45:04.963Z,14.20
2018-06-02T22:47:39.393Z,14.20
2018-06-02T22:50:10.202Z,14.10
2018-06-02T22:52:51.129Z,14.10
2018-06-02T22:55:29.653Z,14.10
2018-06-02T22:57:58.545Z,14.10
2018-06-02T23:00:29.617Z,14.00
2018-06-02T23:03:03.581Z,14.00
2018-06-02T23:05:39.825Z,14.00
2018-06-02T23:08:08.697Z,14.00
2018-06-02T23:10:37.565Z,14.10
2018-06-02T23:13:07.377Z,14.10
2018-06-02T23:15:36.205Z,14.20
2018-06-02T23:18:05.053Z,14.30
2018-06-02T23:20:35.511Z,14.30
2018-06-02T23:23:04.517Z,14.30
2018-06-02T23:25:37.330Z,14.30
2018-06-02T23:28:11.415Z,14.30
2018-06-02T23:30:45.837Z,14.30
2018-06-02T23:33:20.520Z,14.30
2018-06-02T23:35:49.325Z,14.30
2018-06-02T23:38:18.160Z,14.30
2018-06-02T23:40:53.232Z,14.30
2018-06-02T23:43:26.637Z,14.40
2018-06-02T23:45:57.444Z,14.40
2018-06-02T23:48:27.172Z,14.40
2018-06-02T23:51:00.297Z,14.40
2018-06-02T23:53:29.136Z,14.40
2018-06-02T23:56:04.628Z,14.40
2018-06-02T23:58:34.413Z,14.40
